Time;durP1;ratioP1;P1;durP2;ratioP2;P2;SDS_P1;SDS_P2;PMS_P1;PMS_P2;Temp;Humidity;BMP_temperature;BMP_pressure;BME280_temperature;BME280_humidity;BME280_pressure;Samples;Min_cycle;Max_cycle;Signal;HPM_P1;HPM_P2
2021/05/22 00:01:32;;;;;;;1.30;0.50;;;10.90;99.90;;;;;;5040467;27;20661;-88
2021/05/22 00:03:59;;;;;;;0.83;0.60;;;10.90;99.90;;;;;;5048033;27;20717;-88
2021/05/22 00:06:25;;;;;;;1.33;0.77;;;10.90;99.90;;;;;;5029823;28;20638;-87
2021/05/22 00:08:53;;;;;;;1.47;0.93;;;10.90;99.90;;;;;;5033110;28;20648;-91
2021/05/22 00:11:19;;;;;;;0.90;0.53;;;10.90;99.90;;;;;;5028966;28;21270;-88
2021/05/22 00:13:46;;;;;;;1.10;0.87;;;10.90;99.90;;;;;;5023590;28;20627;-89
2021/05/22 00:16:13;;;;;;;1.47;0.90;;;10.90;99.90;;;;;;5022069;28;20662;-89
2021/05/22 00:18:39;;;;;;;1.07;0.60;;;10.90;99.90;;;;;;5061681;28;20676;-88
2021/05/22 00:21:06;;;;;;;1.43;0.83;;;10.80;99.90;;;;;;5044878;28;20928;-88
2021/05/22 00:23:32;;;;;;;3.33;1.00;;;10.80;99.90;;;;;;5041855;28;21008;-88
2021/05/22 00:25:58;;;;;;;2.03;0.70;;;10.80;99.90;;;;;;5039708;27;20951;-87
2021/05/22 00:28:25;;;;;;;1.17;0.83;;;10.70;99.90;;;;;;5031192;27;21357;-87
2021/05/22 00:30:52;;;;;;;1.90;1.00;;;10.80;99.90;;;;;;5037663;28;21215;-88
2021/05/22 00:33:19;;;;;;;1.03;0.63;;;10.80;99.90;;;;;;5042049;28;21184;-90
2021/05/22 00:35:45;;;;;;;1.43;0.47;;;10.70;99.90;;;;;;5037450;28;20674;-89
2021/05/22 00:38:11;;;;;;;1.37;0.60;;;10.70;99.90;;;;;;5040584;28;20628;-89
2021/05/22 00:40:38;;;;;;;1.33;0.60;;;10.70;99.90;;;;;;5042246;28;20660;-89
2021/05/22 00:43:04;;;;;;;0.70;0.70;;;10.70;99.90;;;;;;5028439;28;20625;-89
2021/05/22 00:45:31;;;;;;;6.40;0.80;;;10.70;99.90;;;;;;5027079;28;20662;-89
2021/05/22 00:47:58;;;;;;;1.33;0.80;;;10.60;99.90;;;;;;5030177;28;20938;-89
2021/05/22 00:50:27;;;;;;;1.37;0.87;;;10.60;99.90;;;;;;5058449;28;20741;-88
2021/05/22 00:52:53;;;;;;;3.27;0.60;;;10.50;99.90;;;;;;5074825;27;20629;-89
2021/05/22 00:55:21;;;;;;;2.73;0.80;;;10.50;99.90;;;;;;5035306;28;20655;-89
2021/05/22 00:57:47;;;;;;;1.60;0.80;;;10.50;99.90;;;;;;5041799;28;20722;-90
2021/05/22 01:00:16;;;;;;;1.27;0.70;;;10.50;99.90;;;;;;5045105;28;20646;-88
2021/05/22 01:02:43;;;;;;;0.60;0.60;;;10.50;99.90;;;;;;5039476;28;20631;-88
2021/05/22 01:05:12;;;;;;;1.23;0.90;;;10.50;99.90;;;;;;5073612;27;20701;-88
2021/05/22 01:07:38;;;;;;;0.97;0.73;;;10.40;99.90;;;;;;5041418;28;20976;-88
2021/05/22 01:10:07;;;;;;;1.80;0.83;;;10.40;99.90;;;;;;5044446;27;20745;-88
2021/05/22 01:12:36;;;;;;;1.23;0.83;;;10.40;99.90;;;;;;5031474;27;20587;-88
2021/05/22 01:15:07;;;;;;;1.33;0.80;;;10.40;99.90;;;;;;5054412;27;20665;-88
2021/05/22 01:17:37;;;;;;;2.13;0.67;;;10.40;99.90;;;;;;5043038;27;20622;-88
2021/05/22 01:20:09;;;;;;;3.60;0.73;;;10.40;99.90;;;;;;5057987;27;20650;-89
2021/05/22 01:22:38;;;;;;;1.63;0.93;;;10.40;99.90;;;;;;5051771;27;21253;-89
2021/05/22 01:25:12;;;;;;;1.20;0.57;;;10.40;99.90;;;;;;5046056;27;20625;-89
2021/05/22 01:27:40;;;;;;;1.47;0.97;;;10.40;99.90;;;;;;5023850;27;20623;-89
2021/05/22 01:30:07;;;;;;;1.10;0.70;;;10.40;99.90;;;;;;5068442;27;20742;-89
2021/05/22 01:32:34;;;;;;;0.77;0.57;;;10.40;99.90;;;;;;5039239;27;20623;-88
2021/05/22 01:35:01;;;;;;;1.77;0.80;;;10.40;99.90;;;;;;5048080;27;20694;-89
2021/05/22 01:37:27;;;;;;;0.83;0.70;;;10.30;99.90;;;;;;5047695;27;20645;-89
2021/05/22 01:39:54;;;;;;;0.97;0.60;;;10.30;99.90;;;;;;5032569;27;20685;-88
2021/05/22 01:42:20;;;;;;;1.40;1.00;;;10.30;99.90;;;;;;5064028;27;20635;-90
2021/05/22 01:44:51;;;;;;;1.33;0.80;;;10.30;99.90;;;;;;5089047;27;20633;-89
2021/05/22 01:47:20;;;;;;;1.47;0.70;;;10.30;99.90;;;;;;5052389;27;20638;-89
2021/05/22 01:49:47;;;;;;;1.20;0.90;;;10.40;99.90;;;;;;5052731;27;20724;-88
2021/05/22 01:52:18;;;;;;;2.00;0.90;;;10.40;99.90;;;;;;5037170;27;20631;-87
2021/05/22 01:54:46;;;;;;;2.00;0.93;;;10.40;99.90;;;;;;5052870;27;20611;-88
2021/05/22 01:57:12;;;;;;;2.73;1.10;;;10.50;99.90;;;;;;5066364;27;21114;-89
2021/05/22 01:59:38;;;;;;;0.80;0.80;;;10.50;99.90;;;;;;5055142;27;21236;-88
2021/05/22 02:02:06;;;;;;;1.93;0.90;;;10.50;99.90;;;;;;5032416;27;20630;-87
2021/05/22 02:04:35;;;;;;;1.10;1.00;;;10.60;99.90;;;;;;5069645;27;21161;-88
2021/05/22 02:07:02;;;;;;;1.13;0.80;;;10.60;99.90;;;;;;5038099;27;20672;-88
2021/05/22 02:09:30;;;;;;;1.70;0.70;;;10.60;99.90;;;;;;5065661;27;21333;-88
2021/05/22 02:11:57;;;;;;;3.10;0.97;;;10.60;99.90;;;;;;5056320;27;20619;-88
2021/05/22 02:14:28;;;;;;;1.73;1.10;;;10.70;99.90;;;;;;5044065;28;20976;-89
2021/05/22 02:16:56;;;;;;;1.47;0.77;;;10.70;99.90;;;;;;5075218;27;20655;-90
2021/05/22 02:19:26;;;;;;;1.30;0.80;;;10.70;99.90;;;;;;5028319;27;20635;-89
2021/05/22 02:21:54;;;;;;;1.10;0.70;;;10.70;99.90;;;;;;5051592;27;20676;-90
2021/05/22 02:24:24;;;;;;;1.60;0.80;;;10.70;99.90;;;;;;5045744;27;21211;-89
2021/05/22 02:26:52;;;;;;;2.13;1.00;;;10.80;99.90;;;;;;5028510;27;20619;-91
2021/05/22 02:29:21;;;;;;;3.00;1.60;;;10.80;99.90;;;;;;5047391;27;20703;-89
2021/05/22 02:31:50;;;;;;;1.90;1.50;;;10.80;99.90;;;;;;5034406;27;20642;-90
2021/05/22 02:34:21;;;;;;;3.43;0.97;;;10.80;99.90;;;;;;5041514;27;20634;-90
2021/05/22 02:36:50;;;;;;;1.10;0.90;;;10.90;99.90;;;;;;5034207;27;20670;-90
2021/05/22 02:39:17;;;;;;;0.80;0.73;;;10.70;99.90;;;;;;5043435;27;20630;-89
2021/05/22 02:41:46;;;;;;;2.07;1.03;;;10.70;99.90;;;;;;5050416;27;20650;-90
2021/05/22 02:44:14;;;;;;;3.23;1.13;;;10.50;99.90;;;;;;5049138;27;20632;-90
2021/05/22 02:46:44;;;;;;;1.07;0.77;;;10.50;99.90;;;;;;5082546;27;20610;-90
2021/05/22 02:49:13;;;;;;;3.53;0.87;;;10.40;99.90;;;;;;5057465;27;20967;-89
2021/05/22 02:51:40;;;;;;;1.50;0.80;;;10.10;99.90;;;;;;5055547;27;20630;-89
2021/05/22 02:54:09;;;;;;;1.53;0.70;;;10.00;99.90;;;;;;5049047;27;20611;-89
2021/05/22 02:56:36;;;;;;;3.17;0.80;;;9.90;99.90;;;;;;5035971;27;20655;-87
2021/05/22 02:59:04;;;;;;;1.20;0.63;;;9.80;99.90;;;;;;5049345;27;21317;-89
2021/05/22 03:01:31;;;;;;;1.20;0.60;;;9.80;99.90;;;;;;5048452;27;20708;-88
2021/05/22 03:03:59;;;;;;;2.07;0.93;;;9.80;99.90;;;;;;5022986;27;20675;-89
2021/05/22 03:06:26;;;;;;;5.07;0.73;;;9.80;99.90;;;;;;5035628;27;21032;-89
2021/05/22 03:08:52;;;;;;;0.97;0.93;;;9.70;99.90;;;;;;5043260;27;20972;-88
2021/05/22 03:11:21;;;;;;;2.40;0.90;;;9.60;99.90;;;;;;5039958;27;20671;-89
2021/05/22 03:13:48;;;;;;;3.27;1.03;;;9.60;99.90;;;;;;5029306;27;20619;-88
2021/05/22 03:16:15;;;;;;;1.40;1.00;;;9.60;99.90;;;;;;5052399;27;20663;-89
2021/05/22 03:18:41;;;;;;;4.20;1.00;;;9.70;99.90;;;;;;5023170;28;20654;-84
2021/05/22 03:21:11;;;;;;;2.27;1.03;;;9.80;99.90;;;;;;5040166;27;21015;-83
2021/05/22 03:23:37;;;;;;;2.03;1.03;;;9.90;99.90;;;;;;5033813;27;20683;-83
2021/05/22 03:26:03;;;;;;;3.10;0.80;;;9.80;99.90;;;;;;5021286;27;21034;-83
2021/05/22 03:28:31;;;;;;;2.50;1.07;;;9.70;99.90;;;;;;5026357;27;20627;-83
2021/05/22 03:31:00;;;;;;;4.63;1.30;;;9.70;99.90;;;;;;5029190;27;21439;-83
2021/05/22 03:33:26;;;;;;;2.83;1.07;;;9.60;99.90;;;;;;5029239;27;21185;-86
2021/05/22 03:35:53;;;;;;;5.37;1.20;;;9.60;99.90;;;;;;5038231;27;20667;-87
2021/05/22 03:38:19;;;;;;;1.63;0.97;;;9.50;99.90;;;;;;5032105;27;20654;-87
2021/05/22 03:40:46;;;;;;;1.53;0.90;;;9.50;99.90;;;;;;5037822;27;20676;-86
2021/05/22 03:43:12;;;;;;;2.50;1.33;;;9.50;99.90;;;;;;5024619;27;20645;-86
2021/05/22 03:45:43;;;;;;;1.50;0.90;;;9.50;99.90;;;;;;5028069;27;20627;-87
2021/05/22 03:48:09;;;;;;;1.10;0.80;;;9.40;99.90;;;;;;5019625;28;20630;-87
2021/05/22 03:50:35;;;;;;;1.40;1.07;;;9.50;99.90;;;;;;5033515;27;20659;-87
2021/05/22 03:53:02;;;;;;;2.40;1.10;;;9.50;99.90;;;;;;5043917;27;20638;-87
2021/05/22 03:55:29;;;;;;;2.03;1.40;;;9.50;99.90;;;;;;5026752;27;20713;-86
2021/05/22 03:57:55;;;;;;;2.00;1.20;;;9.60;99.90;;;;;;5033490;27;20623;-87
2021/05/22 04:00:23;;;;;;;1.70;1.40;;;9.60;99.90;;;;;;5021476;28;21301;-87
2021/05/22 04:02:50;;;;;;;1.67;1.30;;;9.60;99.90;;;;;;5031073;27;20626;-87
2021/05/22 04:05:16;;;;;;;2.03;1.80;;;9.70;99.90;;;;;;5034444;28;20618;-86
2021/05/22 04:07:43;;;;;;;5.27;1.40;;;9.80;99.90;;;;;;5022688;28;20670;-86
2021/05/22 04:10:11;;;;;;;1.40;0.93;;;9.80;99.90;;;;;;5022957;27;20678;-86
2021/05/22 04:12:39;;;;;;;3.03;0.97;;;9.80;99.90;;;;;;5025794;28;20980;-86
2021/05/22 04:15:06;;;;;;;4.97;1.20;;;9.90;99.90;;;;;;5023966;28;20621;-85
2021/05/22 04:17:32;;;;;;;2.10;0.93;;;9.90;99.90;;;;;;5027049;27;20647;-86
2021/05/22 04:19:59;;;;;;;1.73;1.20;;;9.90;99.90;;;;;;5028657;28;20647;-86
2021/05/22 04:22:26;;;;;;;2.20;1.30;;;9.90;99.90;;;;;;5036459;28;20670;-86
2021/05/22 04:24:52;;;;;;;1.80;1.23;;;10.00;99.90;;;;;;5040471;28;20653;-86
2021/05/22 04:27:18;;;;;;;2.30;1.47;;;10.00;99.90;;;;;;5028607;28;20645;-86
2021/05/22 04:29:45;;;;;;;3.57;1.63;;;10.00;99.90;;;;;;5032822;28;21017;-85
2021/05/22 04:32:11;;;;;;;3.50;0.93;;;10.00;99.90;;;;;;5023321;27;20627;-86
2021/05/22 04:34:37;;;;;;;2.63;0.80;;;10.00;99.90;;;;;;5045659;28;20639;-87
2021/05/22 04:37:04;;;;;;;2.03;1.43;;;10.00;99.90;;;;;;5020630;28;21220;-88
2021/05/22 04:39:31;;;;;;;2.20;1.03;;;9.90;99.90;;;;;;5024469;28;20667;-87
2021/05/22 04:41:58;;;;;;;2.57;1.10;;;10.00;99.90;;;;;;5040920;28;21066;-88
2021/05/22 04:44:25;;;;;;;2.30;0.90;;;9.90;99.90;;;;;;5029270;27;20676;-87
2021/05/22 04:46:51;;;;;;;2.37;1.00;;;9.80;99.90;;;;;;5032877;27;20634;-89
2021/05/22 04:49:17;;;;;;;0.90;0.73;;;9.80;99.90;;;;;;5043240;27;20614;-87
2021/05/22 04:51:45;;;;;;;0.80;0.50;;;9.70;99.90;;;;;;5032224;27;20750;-88
2021/05/22 04:54:13;;;;;;;0.90;0.40;;;9.60;99.90;;;;;;5060866;27;20638;-88
2021/05/22 04:56:39;;;;;;;1.53;1.00;;;9.60;99.90;;;;;;5028896;27;20666;-87
2021/05/22 04:59:05;;;;;;;1.53;0.80;;;9.60;99.90;;;;;;5028768;27;20629;-88
2021/05/22 05:01:31;;;;;;;2.40;0.83;;;9.60;99.90;;;;;;5031541;27;20652;-87
2021/05/22 05:03:58;;;;;;;1.00;0.80;;;9.70;99.90;;;;;;5026658;27;20731;-88
2021/05/22 05:06:25;;;;;;;2.10;0.97;;;9.80;99.90;;;;;;5044073;27;20634;-87
2021/05/22 05:08:53;;;;;;;1.30;0.50;;;9.90;99.90;;;;;;5023277;27;21115;-88
2021/05/22 05:11:20;;;;;;;1.60;0.50;;;10.10;99.90;;;;;;5039849;27;20662;-87
2021/05/22 05:13:46;;;;;;;1.20;0.60;;;10.20;99.90;;;;;;5035027;27;20637;-88
2021/05/22 05:16:14;;;;;;;1.63;0.70;;;10.30;99.90;;;;;;5049379;27;20983;-88
2021/05/22 05:18:40;;;;;;;1.43;0.60;;;10.20;99.90;;;;;;5035896;27;20638;-88
2021/05/22 05:21:07;;;;;;;1.80;0.70;;;10.00;99.90;;;;;;5033038;27;20667;-88
2021/05/22 05:23:34;;;;;;;4.73;1.37;;;9.90;99.90;;;;;;5042009;27;20635;-88
2021/05/22 05:26:02;;;;;;;0.93;0.57;;;9.90;99.90;;;;;;5041489;27;21248;-88
2021/05/22 05:28:29;;;;;;;1.80;0.67;;;10.00;99.90;;;;;;5030759;27;20656;-88
2021/05/22 05:30:55;;;;;;;1.93;0.60;;;10.10;99.90;;;;;;5045925;27;20638;-88
2021/05/22 05:33:21;;;;;;;1.10;0.70;;;10.20;99.90;;;;;;5041142;27;20638;-89
2021/05/22 05:35:49;;;;;;;1.23;0.60;;;10.50;99.90;;;;;;5061275;27;20683;-90
2021/05/22 05:38:16;;;;;;;1.53;0.80;;;10.70;99.90;;;;;;5034729;27;20639;-90
2021/05/22 05:40:42;;;;;;;1.80;0.90;;;10.60;99.90;;;;;;5026972;28;20655;-88
2021/05/22 05:43:10;;;;;;;1.10;0.70;;;10.70;99.90;;;;;;5039357;27;20625;-91
2021/05/22 05:45:38;;;;;;;1.80;0.77;;;10.70;99.90;;;;;;5032549;27;21005;-91
2021/05/22 05:48:05;;;;;;;1.30;0.97;;;10.70;99.90;;;;;;5031464;27;20622;-91
2021/05/22 05:50:33;;;;;;;0.57;0.53;;;10.70;99.90;;;;;;5032622;27;20689;-90
2021/05/22 05:52:59;;;;;;;1.00;0.80;;;10.80;99.90;;;;;;5063333;27;20638;-91
2021/05/22 05:55:26;;;;;;;1.73;0.80;;;11.00;99.90;;;;;;5057727;27;20695;-92
2021/05/22 05:57:55;;;;;;;1.67;0.90;;;11.20;99.90;;;;;;5028439;27;20626;-90
2021/05/22 06:00:24;;;;;;;1.40;1.00;;;11.50;99.90;;;;;;5050387;27;20724;-90
2021/05/22 06:02:52;;;;;;;1.00;0.70;;;11.70;99.90;;;;;;5075156;27;20607;-92
2021/05/22 06:05:19;;;;;;;2.40;1.03;;;11.60;99.90;;;;;;5028654;27;21006;-92
2021/05/22 06:07:45;;;;;;;1.97;0.57;;;11.50;99.90;;;;;;5060274;27;20626;-93
2021/05/22 06:10:13;;;;;;;1.60;0.93;;;11.40;99.90;;;;;;5098054;27;20631;-92
2021/05/22 06:12:41;;;;;;;1.60;1.00;;;11.50;99.90;;;;;;5025335;27;20639;-89
2021/05/22 06:15:21;;;;;;;2.10;0.90;;;11.90;99.90;;;;;;5031402;27;20749;-89
2021/05/22 06:17:47;;;;;;;4.60;1.20;;;12.00;99.90;;;;;;5054343;27;20643;-88
2021/05/22 06:20:15;;;;;;;2.10;0.97;;;12.20;99.90;;;;;;5060682;27;20631;-89
2021/05/22 06:22:42;;;;;;;4.13;2.90;;;12.50;99.90;;;;;;5074423;27;20610;-89
2021/05/22 06:25:09;;;;;;;2.93;1.07;;;12.30;99.90;;;;;;5054528;27;20662;-88
2021/05/22 06:27:36;;;;;;;3.03;1.00;;;12.20;99.90;;;;;;5055087;27;20677;-85
2021/05/22 06:30:03;;;;;;;2.40;1.20;;;12.40;99.90;;;;;;5040301;27;21060;-84
2021/05/22 06:32:29;;;;;;;2.47;0.80;;;12.40;99.90;;;;;;5048329;27;21568;-84
2021/05/22 06:34:56;;;;;;;5.17;1.37;;;12.60;99.90;;;;;;5025789;27;20826;-84
2021/05/22 06:37:24;;;;;;;2.50;1.47;;;12.80;99.90;;;;;;5057761;27;20661;-84
2021/05/22 06:39:51;;;;;;;3.73;1.60;;;12.80;99.90;;;;;;5041709;27;20639;-85
2021/05/22 06:42:17;;;;;;;5.13;2.50;;;12.70;99.90;;;;;;5029910;27;20633;-85
2021/05/22 06:44:51;;;;;;;5.60;1.50;;;12.90;99.90;;;;;;5033722;27;20713;-85
2021/05/22 06:47:17;;;;;;;3.77;1.40;;;12.70;99.90;;;;;;5030760;27;20634;-85
2021/05/22 06:49:44;;;;;;;3.50;1.30;;;12.60;99.90;;;;;;5034693;27;20658;-85
2021/05/22 06:52:10;;;;;;;5.90;1.33;;;12.60;99.90;;;;;;5027324;27;21213;-85
2021/05/22 06:54:37;;;;;;;2.60;1.03;;;12.60;99.90;;;;;;5042101;27;20623;-85
2021/05/22 06:57:03;;;;;;;4.07;1.40;;;12.80;99.90;;;;;;5038664;27;20711;-85
2021/05/22 06:59:31;;;;;;;3.20;0.93;;;13.10;99.90;;;;;;5025853;27;20622;-85
2021/05/22 07:01:57;;;;;;;2.63;1.23;;;12.90;99.90;;;;;;5027480;27;20631;-85
2021/05/22 07:04:23;;;;;;;3.90;1.10;;;13.00;99.90;;;;;;5032019;27;20714;-85
2021/05/22 07:06:50;;;;;;;2.63;1.40;;;13.30;99.90;;;;;;5049682;27;21273;-84
2021/05/22 07:09:16;;;;;;;3.37;1.10;;;13.80;99.90;;;;;;5044664;27;20615;-84
2021/05/22 07:11:46;;;;;;;1.87;0.90;;;13.70;99.90;;;;;;5030911;27;20722;-88
2021/05/22 07:14:12;;;;;;;2.80;1.50;;;13.60;99.90;;;;;;5045666;27;21195;-85
2021/05/22 07:16:39;;;;;;;7.43;1.60;;;13.50;99.90;;;;;;5047717;27;20667;-85
2021/05/22 07:19:05;;;;;;;1.90;1.37;;;13.70;99.90;;;;;;5025801;27;20635;-85
2021/05/22 07:21:33;;;;;;;2.10;1.27;;;13.70;99.90;;;;;;5036519;27;21083;-84
2021/05/22 07:24:00;;;;;;;2.37;1.50;;;13.80;99.90;;;;;;5026428;27;20631;-88
2021/05/22 07:26:26;;;;;;;3.97;1.70;;;13.60;99.90;;;;;;5040184;27;20666;-88
2021/05/22 07:28:54;;;;;;;3.97;1.20;;;13.70;99.90;;;;;;5032461;27;20676;-88
2021/05/22 07:31:21;;;;;;;2.33;1.10;;;13.80;99.90;;;;;;5021350;28;20643;-88
2021/05/22 07:33:50;;;;;;;2.20;1.30;;;13.50;99.80;;;;;;5038011;27;21022;-89
2021/05/22 07:36:16;;;;;;;3.50;1.10;;;13.40;99.90;;;;;;5048069;27;20674;-89
2021/05/22 07:38:42;;;;;;;4.00;1.23;;;13.70;99.90;;;;;;5038206;27;20623;-89
2021/05/22 07:41:09;;;;;;;2.53;1.17;;;13.80;99.90;;;;;;5034364;27;21015;-89
2021/05/22 07:43:35;;;;;;;4.40;1.47;;;13.90;99.70;;;;;;5034604;27;21130;-88
2021/05/22 07:46:03;;;;;;;2.83;1.20;;;14.00;99.90;;;;;;5039529;27;20643;-89
2021/05/22 07:48:30;;;;;;;3.27;1.37;;;14.20;99.70;;;;;;5029982;27;20610;-89
2021/05/22 07:50:58;;;;;;;2.40;1.10;;;14.60;99.10;;;;;;5041069;27;20641;-90
2021/05/22 07:53:24;;;;;;;4.07;1.30;;;15.10;98.10;;;;;;5031617;27;20632;-90
2021/05/22 07:55:50;;;;;;;5.10;1.30;;;14.90;97.30;;;;;;5049310;27;21122;-89
2021/05/22 07:58:18;;;;;;;4.10;1.13;;;15.00;98.10;;;;;;5034204;27;21101;-89
2021/05/22 08:00:45;;;;;;;3.40;1.27;;;14.70;96.40;;;;;;5042927;28;21173;-90
2021/05/22 08:03:13;;;;;;;3.60;3.07;;;14.90;96.30;;;;;;5028636;28;21170;-89
2021/05/22 08:05:39;;;;;;;4.53;1.13;;;14.80;96.50;;;;;;5041307;27;20685;-89
2021/05/22 08:08:06;;;;;;;4.00;1.40;;;15.30;96.30;;;;;;5038796;28;21016;-89
2021/05/22 08:10:33;;;;;;;4.70;1.17;;;15.20;94.40;;;;;;5027818;28;20583;-89
2021/05/22 08:12:59;;;;;;;2.60;1.27;;;15.10;94.60;;;;;;5042808;27;20621;-89
2021/05/22 08:15:27;;;;;;;4.33;1.27;;;15.20;95.40;;;;;;5032969;28;20651;-89
2021/05/22 08:17:54;;;;;;;4.53;1.10;;;15.50;95.30;;;;;;5042183;28;20710;-89
2021/05/22 08:20:21;;;;;;;2.10;1.00;;;15.50;94.60;;;;;;5045217;27;21145;-90
2021/05/22 08:22:49;;;;;;;5.07;2.03;;;15.10;96.10;;;;;;5039444;27;21191;-89
2021/05/22 08:25:15;;;;;;;5.03;1.40;;;15.00;96.30;;;;;;5019155;27;20665;-89
2021/05/22 08:27:42;;;;;;;5.40;1.30;;;15.40;95.40;;;;;;5052977;27;21182;-90
2021/05/22 08:30:10;;;;;;;1.40;0.80;;;15.30;96.30;;;;;;5047426;27;20635;-89
2021/05/22 08:32:37;;;;;;;5.20;1.23;;;15.40;96.00;;;;;;5047984;27;20805;-90
2021/05/22 08:35:05;;;;;;;2.97;0.70;;;15.30;94.50;;;;;;5051785;27;20638;-90
2021/05/22 08:37:32;;;;;;;1.80;0.87;;;15.30;94.50;;;;;;5043352;27;20771;-91
2021/05/22 08:39:59;;;;;;;3.90;1.03;;;15.60;94.00;;;;;;5045514;27;20635;-88
2021/05/22 08:42:29;;;;;;;2.23;0.93;;;15.30;93.00;;;;;;5049209;27;20631;-89
2021/05/22 08:45:07;;;;;;;4.90;1.60;;;15.70;93.50;;;;;;5050695;27;20594;-88
2021/05/22 08:47:35;;;;;;;3.17;1.10;;;15.30;93.10;;;;;;5038907;27;21344;-90
2021/05/22 08:50:01;;;;;;;6.23;1.37;;;15.00;92.50;;;;;;5049135;27;20615;-88
2021/05/22 08:52:28;;;;;;;4.93;1.63;;;14.60;92.60;;;;;;5035127;27;20989;-90
2021/05/22 08:54:55;;;;;;;3.50;1.33;;;15.00;92.40;;;;;;5052161;27;20619;-90
2021/05/22 08:57:22;;;;;;;1.83;0.90;;;15.30;92.50;;;;;;5041903;27;20677;-91
2021/05/22 08:59:49;;;;;;;3.60;1.37;;;15.70;91.50;;;;;;5044027;27;20622;-91
2021/05/22 09:02:18;;;;;;;3.13;0.80;;;15.90;91.80;;;;;;5033056;27;20642;-91
2021/05/22 09:05:18;;;;;;;3.83;1.03;;;15.60;90.80;;;;;;5036574;27;20693;-91
2021/05/22 09:07:46;;;;;;;0.90;0.77;;;15.20;91.00;;;;;;5040791;27;20619;-90
2021/05/22 09:10:16;;;;;;;5.03;1.03;;;14.90;91.10;;;;;;5038671;27;20613;-91
2021/05/22 09:12:45;;;;;;;3.13;1.07;;;15.10;90.00;;;;;;5039933;27;20637;-90
2021/05/22 09:15:13;;;;;;;1.00;0.47;;;15.50;90.00;;;;;;5026687;27;20635;-91
2021/05/22 09:17:47;;;;;;;2.87;1.40;;;15.90;87.70;;;;;;5047224;27;20667;-90
2021/05/22 09:20:16;;;;;;;3.30;1.20;;;16.00;85.60;;;;;;5038523;27;20619;-91
2021/05/22 09:22:43;;;;;;;1.10;1.00;;;16.00;86.40;;;;;;5041137;27;20628;-90
2021/05/22 09:25:10;;;;;;;2.93;0.70;;;15.90;83.20;;;;;;5038481;27;20658;-91
2021/05/22 09:27:43;;;;;;;4.87;1.43;;;15.90;83.10;;;;;;5042322;27;20587;-91
2021/05/22 09:30:12;;;;;;;3.70;0.63;;;16.40;83.80;;;;;;5050808;27;20691;-92
2021/05/22 09:32:40;;;;;;;5.97;1.10;;;16.50;82.70;;;;;;5031455;27;20633;-91
2021/05/22 09:35:10;;;;;;;2.43;0.70;;;16.90;82.90;;;;;;5045704;27;20742;-92
2021/05/22 09:37:44;;;;;;;5.10;1.10;;;16.60;81.50;;;;;;5027100;27;20731;-92
2021/05/22 09:40:11;;;;;;;1.20;1.10;;;16.50;83.60;;;;;;5034764;27;20656;-93
2021/05/22 09:42:41;;;;;;;2.10;0.83;;;16.50;79.20;;;;;;5069150;27;20699;-91
2021/05/22 09:45:25;;;;;;;3.03;0.73;;;16.40;74.20;;;;;;5037933;27;20650;-91
2021/05/22 09:47:53;;;;;;;0.80;0.50;;;16.60;74.00;;;;;;5065153;27;20626;-92
2021/05/22 09:50:34;;;;;;;5.77;1.20;;;16.50;75.30;;;;;;5084831;27;20586;-90
2021/05/22 09:53:02;;;;;;;2.50;0.70;;;16.60;76.00;;;;;;5063510;27;20702;-91
2021/05/22 09:55:29;;;;;;;3.00;0.83;;;16.90;76.30;;;;;;5042304;27;20643;-91
2021/05/22 09:57:57;;;;;;;4.87;1.30;;;17.00;78.10;;;;;;5068443;27;21263;-90
2021/05/22 10:00:26;;;;;;;2.30;0.90;;;17.20;74.30;;;;;;5028573;27;21182;-91
2021/05/22 10:02:53;;;;;;;2.00;0.70;;;17.00;76.40;;;;;;5078961;27;20729;-90
2021/05/22 10:05:21;;;;;;;2.00;0.70;;;16.70;77.30;;;;;;5054359;27;20658;-89
2021/05/22 10:07:49;;;;;;;2.87;1.00;;;16.70;74.10;;;;;;5047177;27;20619;-90
2021/05/22 10:10:16;;;;;;;2.00;0.70;;;16.70;73.90;;;;;;5035936;27;20624;-91
2021/05/22 10:12:44;;;;;;;6.00;0.83;;;17.10;76.60;;;;;;5045439;27;20664;-92
2021/05/22 10:15:14;;;;;;;1.90;1.20;;;17.60;76.10;;;;;;5035668;27;20671;-91
2021/05/22 10:17:40;;;;;;;1.70;0.90;;;18.10;75.80;;;;;;5031001;27;20662;-90
2021/05/22 10:20:08;;;;;;;10.17;1.33;;;18.10;74.30;;;;;;5055848;27;20642;-91
2021/05/22 10:22:34;;;;;;;4.07;1.40;;;18.10;74.20;;;;;;5037243;27;20632;-91
2021/05/22 10:25:03;;;;;;;3.30;1.37;;;18.00;72.80;;;;;;5056817;27;20650;-91
2021/05/22 10:27:30;;;;;;;1.40;1.13;;;17.30;73.80;;;;;;5033687;27;20963;-91
2021/05/22 10:29:57;;;;;;;1.40;1.03;;;17.40;73.40;;;;;;5043786;27;20618;-90
2021/05/22 10:32:27;;;;;;;3.70;0.93;;;17.00;73.40;;;;;;5049171;27;20659;-91
2021/05/22 10:34:54;;;;;;;2.10;1.00;;;17.00;74.70;;;;;;5039301;27;21038;-92
2021/05/22 10:37:45;;;;;;;5.33;1.43;;;17.30;74.30;;;;;;5045038;27;20677;-91
2021/05/22 10:40:13;;;;;;;4.83;1.20;;;17.30;74.60;;;;;;5017874;27;21201;-91
2021/05/22 10:42:52;;;;;;;3.47;1.00;;;17.70;72.20;;;;;;5074294;27;21221;-90
2021/05/22 10:45:33;;;;;;;2.90;0.80;;;17.50;73.20;;;;;;5044505;27;20654;-91
2021/05/22 10:48:02;;;;;;;4.33;0.93;;;18.00;71.30;;;;;;5052389;27;20622;-90
2021/05/22 10:50:44;;;;;;;5.17;1.37;;;18.10;70.80;;;;;;5038217;27;20639;-90
2021/05/22 10:53:21;;;;;;;2.37;0.80;;;17.60;68.50;;;;;;5043293;27;21453;-91
2021/05/22 10:56:05;;;;;;;3.40;0.90;;;18.40;70.40;;;;;;5054500;27;21213;-91
2021/05/22 10:58:31;;;;;;;4.00;1.13;;;18.90;64.60;;;;;;5063270;27;20646;-92
2021/05/22 11:01:36;;;;;;;1.77;0.80;;;18.70;64.80;;;;;;5052566;27;20675;-93
2021/05/22 11:04:42;;;;;;;3.77;0.93;;;18.70;64.80;;;;;;5032703;27;20614;-90
2021/05/22 11:07:20;;;;;;;1.17;0.50;;;18.80;63.00;;;;;;5024429;27;20627;-89
2021/05/22 11:09:50;;;;;;;1.77;1.10;;;19.70;64.50;;;;;;5025881;27;21223;-89
2021/05/22 11:12:47;;;;;;;2.00;1.00;;;19.60;66.30;;;;;;5018942;27;20638;-88
2021/05/22 11:15:56;;;;;;;4.10;1.43;;;18.60;66.00;;;;;;5028608;27;20651;-88
2021/05/22 11:18:24;;;;;;;4.23;1.50;;;18.20;67.30;;;;;;5033445;27;20707;-88
2021/05/22 11:21:17;;;;;;;2.20;1.13;;;18.30;64.30;;;;;;5042680;27;21075;-87
2021/05/22 11:24:10;;;;;;;1.67;0.90;;;18.30;62.00;;;;;;5027647;27;21044;-90
2021/05/22 11:27:00;;;;;;;2.60;1.00;;;18.40;63.10;;;;;;5030985;27;20658;-89
2021/05/22 11:29:49;;;;;;;2.20;1.17;;;19.30;60.30;;;;;;5038756;27;20627;-88
2021/05/22 11:32:57;;;;;;;3.23;1.03;;;19.60;59.30;;;;;;5044771;27;20693;-88
2021/05/22 11:35:46;;;;;;;2.10;1.20;;;19.00;59.20;;;;;;5026834;27;20668;-88
2021/05/22 11:38:36;;;;;;;1.70;0.87;;;19.50;57.80;;;;;;5035702;27;20627;-88
2021/05/22 11:41:06;;;;;;;3.20;0.77;;;19.30;56.00;;;;;;5034809;27;20718;-87
2021/05/22 11:43:33;;;;;;;3.63;1.00;;;19.80;55.70;;;;;;5030628;27;20624;-87
2021/05/22 11:46:01;;;;;;;2.17;0.90;;;19.60;54.50;;;;;;5024582;28;20679;-88
2021/05/22 11:48:29;;;;;;;4.23;0.90;;;19.10;55.30;;;;;;5015591;28;20679;-88
2021/05/22 11:51:06;;;;;;;2.07;1.00;;;18.50;56.10;;;;;;5045402;27;20689;-88
2021/05/22 11:53:34;;;;;;;4.60;1.17;;;19.80;57.60;;;;;;5029291;27;20619;-88
2021/05/22 11:56:03;;;;;;;2.30;1.00;;;20.00;53.90;;;;;;5026110;27;20650;-88
2021/05/22 11:58:32;;;;;;;1.47;1.17;;;19.80;52.40;;;;;;5031188;28;20629;-90
2021/05/22 12:01:10;;;;;;;2.80;1.00;;;20.30;53.30;;;;;;5036385;27;20628;-87
2021/05/22 12:03:37;;;;;;;2.07;1.40;;;21.60;53.80;;;;;;5037270;27;20619;-88
2021/05/22 12:06:05;;;;;;;1.17;1.03;;;21.60;53.20;;;;;;5032177;28;20662;-87
2021/05/22 12:08:32;;;;;;;2.73;1.03;;;21.30;51.30;;;;;;5037317;27;20690;-88
2021/05/22 12:10:58;;;;;;;2.93;1.10;;;20.90;51.90;;;;;;5024097;28;20631;-88
2021/05/22 12:13:24;;;;;;;2.00;0.70;;;21.20;52.00;;;;;;5038656;27;20619;-89
2021/05/22 12:15:53;;;;;;;3.23;0.87;;;20.30;52.00;;;;;;5027886;28;20660;-87
2021/05/22 12:18:20;;;;;;;3.07;1.33;;;19.90;52.90;;;;;;5027296;28;20622;-89
2021/05/22 12:20:49;;;;;;;5.03;0.80;;;19.50;53.20;;;;;;5029966;28;20647;-88
2021/05/22 12:23:27;;;;;;;4.53;1.30;;;20.00;52.50;;;;;;5026709;28;20631;-88
2021/05/22 12:25:55;;;;;;;3.00;0.97;;;20.30;52.30;;;;;;5039757;28;20730;-88
2021/05/22 12:28:22;;;;;;;1.40;1.30;;;20.30;52.90;;;;;;5047326;27;20627;-88
2021/05/22 12:30:51;;;;;;;1.70;1.03;;;20.70;53.50;;;;;;5044279;28;21201;-89
2021/05/22 12:33:18;;;;;;;3.10;1.20;;;20.90;51.80;;;;;;5038360;27;20658;-88
2021/05/22 12:35:46;;;;;;;2.23;1.03;;;21.10;51.40;;;;;;5028608;28;21002;-85
2021/05/22 12:38:13;;;;;;;2.87;1.43;;;21.70;51.90;;;;;;5019176;28;20598;-86
2021/05/22 12:40:50;;;;;;;2.77;0.77;;;21.40;53.70;;;;;;5023590;28;21070;-86
2021/05/22 12:43:18;;;;;;;1.63;0.87;;;21.10;51.90;;;;;;5031822;28;20644;-89
2021/05/22 12:45:46;;;;;;;2.10;0.57;;;21.80;50.60;;;;;;5046764;28;20657;-87
2021/05/22 12:48:23;;;;;;;2.10;1.33;;;22.00;50.00;;;;;;5044067;28;20671;-87
2021/05/22 12:50:49;;;;;;;3.03;1.07;;;22.60;50.60;;;;;;5027221;28;20642;-86
2021/05/22 12:53:29;;;;;;;1.60;0.80;;;21.40;49.90;;;;;;5028206;28;20643;-85
2021/05/22 12:56:04;;;;;;;3.57;0.70;;;20.00;51.80;;;;;;5027556;28;20654;-86
2021/05/22 12:58:31;;;;;;;1.83;0.70;;;19.60;53.10;;;;;;5036367;28;20644;-87